Terminal Aerodrome Forecast
Issued by NWS

Home | Current Version | Previous Version | Graphics & Text | Print | Product List | Glossary On
Versions: 1 2 3 4 5 6 7 8 9 10 11 12 13 14 15 16 17 18 19 20 21 22 23 24 25 26 27 28
000
FTUS42 KMHX 221700
TAFISO
TAF
KISO 221722Z 2218/2318 01008KT 5SM -DZ BR OVC006
      TEMPO 2221/2223 3SM -RA BR OVC004
     FM222300 02003KT 1SM -RA BR OVC004
     FM231400 07005KT 2SM -RA BR BKN007
      AMD LTD TO CLD VIS AND WIND=

USA.gov is the U.S. government's official web portal to all federal, state and local government web resources and services.